createdAt,value
2023-05-13T00:02:00.286Z,8.40
2023-05-13T00:04:26.621Z,7.47
2023-05-13T00:06:52.745Z,5.40
2023-05-13T00:09:19.133Z,8.13
2023-05-13T00:11:45.396Z,6.73
2023-05-13T00:14:11.835Z,7.07
2023-05-13T00:16:39.316Z,5.87
2023-05-13T00:19:05.955Z,9.63
2023-05-13T00:21:33.049Z,7.53
2023-05-13T00:23:59.588Z,5.63
2023-05-13T00:26:25.818Z,8.53
2023-05-13T00:28:52.533Z,6.93
2023-05-13T00:31:18.666Z,6.57
2023-05-13T00:33:45.353Z,9.23
2023-05-13T00:36:11.712Z,9.93
2023-05-13T00:38:38.270Z,9.40
2023-05-13T00:41:05.045Z,8.97
2023-05-13T00:43:31.413Z,6.00
2023-05-13T00:45:58.398Z,7.40
2023-05-13T00:48:25.342Z,7.70
2023-05-13T00:50:51.977Z,6.00
2023-05-13T00:53:18.401Z,12.10
2023-05-13T00:55:45.577Z,7.03
2023-05-13T00:58:13.061Z,9.07
2023-05-13T01:00:52.223Z,6.20
2023-05-13T01:03:28.589Z,9.53
2023-05-13T01:06:11.549Z,8.57
2023-05-13T01:08:50.197Z,9.17
2023-05-13T01:11:24.021Z,6.90
2023-05-13T01:13:57.260Z,6.80
2023-05-13T01:16:33.920Z,7.77
2023-05-13T01:19:06.730Z,6.13
2023-05-13T01:21:36.485Z,6.63
2023-05-13T01:24:03.088Z,8.60
2023-05-13T01:26:29.666Z,9.83
2023-05-13T01:28:56.372Z,6.83
2023-05-13T01:31:23.576Z,7.03
2023-05-13T01:33:51.377Z,6.47
2023-05-13T01:36:18.213Z,13.73
2023-05-13T01:38:44.875Z,9.67
2023-05-13T01:41:11.020Z,9.60
2023-05-13T01:43:37.638Z,9.20
2023-05-13T01:46:11.566Z,8.40
2023-05-13T01:48:38.062Z,7.40
2023-05-13T01:51:05.230Z,7.47
2023-05-13T01:53:31.671Z,7.40
2023-05-13T01:55:57.805Z,8.17
2023-05-13T01:58:24.163Z,6.87
2023-05-13T02:00:50.348Z,7.67
2023-05-13T02:03:18.172Z,9.03
2023-05-13T02:05:45.888Z,7.40
2023-05-13T02:08:12.228Z,7.23
2023-05-13T02:10:38.370Z,8.43
2023-05-13T02:13:05.814Z,10.83
2023-05-13T02:15:31.954Z,8.50
2023-05-13T02:17:58.509Z,8.03
2023-05-13T02:20:25.655Z,7.20
2023-05-13T02:22:51.994Z,8.30
2023-05-13T02:25:18.226Z,8.03
2023-05-13T02:27:44.595Z,11.17
2023-05-13T02:30:11.191Z,7.67
2023-05-13T02:32:37.541Z,8.97
2023-05-13T02:35:05.062Z,6.83
2023-05-13T02:37:31.482Z,7.67
2023-05-13T02:40:01.569Z,8.77
2023-05-13T02:42:28.906Z,8.03
2023-05-13T02:44:55.220Z,6.97
2023-05-13T02:47:23.117Z,5.83
2023-05-13T02:49:49.964Z,8.00
2023-05-13T02:52:16.350Z,8.20
2023-05-13T02:54:42.495Z,6.33
2023-05-13T02:57:09.261Z,6.47
2023-05-13T02:59:35.349Z,9.80
2023-05-13T03:02:01.714Z,8.07
2023-05-13T03:04:28.125Z,8.50
2023-05-13T03:06:54.736Z,10.97
2023-05-13T03:09:20.795Z,8.63
2023-05-13T03:11:47.557Z,7.60
2023-05-13T03:14:13.844Z,7.93
2023-05-13T03:16:40.425Z,5.70
2023-05-13T03:19:06.635Z,7.47
2023-05-13T03:21:33.110Z,7.87
2023-05-13T03:23:59.263Z,8.03
2023-05-13T03:26:26.036Z,8.80
2023-05-13T03:28:52.173Z,9.37
2023-05-13T03:31:19.245Z,9.13
2023-05-13T03:33:45.741Z,7.50
2023-05-13T03:36:12.987Z,6.97
2023-05-13T03:38:40.162Z,9.53
2023-05-13T03:41:07.271Z,7.30
2023-05-13T03:43:33.831Z,9.07
2023-05-13T03:46:03.294Z,11.07
2023-05-13T03:48:30.426Z,9.57
2023-05-13T03:50:59.593Z,7.57
2023-05-13T03:53:26.218Z,7.60
2023-05-13T03:55:54.494Z,10.10
2023-05-13T03:58:23.533Z,7.90
2023-05-13T04:00:50.330Z,7.87
2023-05-13T04:03:17.960Z,9.17
2023-05-13T04:05:48.181Z,9.30
2023-05-13T04:08:14.883Z,6.67
2023-05-13T04:10:43.143Z,7.47
2023-05-13T04:13:09.251Z,8.10
2023-05-13T04:15:35.630Z,7.37
2023-05-13T04:18:01.798Z,8.17
2023-05-13T04:20:28.511Z,7.43
2023-05-13T04:22:54.707Z,10.10
2023-05-13T04:25:21.197Z,11.67
2023-05-13T04:27:47.369Z,9.83
2023-05-13T04:30:21.866Z,6.60
2023-05-13T04:32:48.267Z,5.20
2023-05-13T04:35:15.618Z,5.60
2023-05-13T04:37:45.076Z,6.33
2023-05-13T04:40:14.745Z,9.17
2023-05-13T04:42:41.016Z,8.40
2023-05-13T04:45:08.091Z,8.07
2023-05-13T04:47:37.259Z,5.63
2023-05-13T04:50:04.859Z,7.87
2023-05-13T04:52:31.902Z,9.70
2023-05-13T04:54:58.554Z,9.60
2023-05-13T04:57:26.278Z,7.17
2023-05-13T04:59:52.802Z,8.77
2023-05-13T05:02:19.125Z,7.57
2023-05-13T05:04:46.215Z,11.23
2023-05-13T05:07:13.911Z,7.60
2023-05-13T05:09:40.295Z,7.87
2023-05-13T05:12:07.225Z,8.60
2023-05-13T05:14:35.395Z,17.63
2023-05-13T05:17:01.583Z,10.57
2023-05-13T05:19:29.437Z,7.37
2023-05-13T05:21:56.210Z,7.77
2023-05-13T05:24:24.178Z,6.00
2023-05-13T05:26:50.797Z,12.27
2023-05-13T05:29:17.632Z,7.93
2023-05-13T05:31:44.762Z,7.70
2023-05-13T05:34:11.658Z,8.17
2023-05-13T05:36:40.406Z,10.70
2023-05-13T05:39:07.137Z,8.70
2023-05-13T05:41:36.086Z,7.23
2023-05-13T05:44:02.822Z,6.67
2023-05-13T05:46:29.400Z,10.03
2023-05-13T05:48:56.664Z,6.90
2023-05-13T05:51:22.952Z,9.73
2023-05-13T05:53:49.611Z,6.23
2023-05-13T05:56:16.427Z,8.38
2023-05-13T05:58:44.625Z,6.88
2023-05-13T06:01:11.141Z,9.50
2023-05-13T06:03:38.019Z,5.95
2023-05-13T06:06:04.605Z,5.50
2023-05-13T06:08:31.044Z,7.07
2023-05-13T06:10:57.776Z,6.15
2023-05-13T06:13:24.421Z,10.45
2023-05-13T06:15:50.697Z,6.07
2023-05-13T06:18:17.537Z,5.35
2023-05-13T06:20:43.687Z,5.25
2023-05-13T06:23:10.465Z,5.05
2023-05-13T06:25:36.616Z,5.97
2023-05-13T06:28:05.421Z,6.20
2023-05-13T06:30:31.617Z,5.50
2023-05-13T06:33:02.284Z,5.30
2023-05-13T06:35:30.167Z,4.22
2023-05-13T06:37:56.698Z,6.45
2023-05-13T06:40:23.021Z,4.53
2023-05-13T06:42:49.742Z,8.27
2023-05-13T06:45:22.638Z,4.47
2023-05-13T06:47:50.700Z,4.72
2023-05-13T06:50:17.120Z,7.05
2023-05-13T06:52:43.497Z,4.32
2023-05-13T06:55:10.233Z,6.30
2023-05-13T06:57:42.853Z,9.35
2023-05-13T07:00:10.263Z,4.82
2023-05-13T07:02:36.640Z,5.95
2023-05-13T07:05:03.246Z,3.70
2023-05-13T07:07:29.723Z,4.60
2023-05-13T07:09:56.113Z,5.40
2023-05-13T07:12:22.777Z,7.10
2023-05-13T07:14:48.957Z,5.97
2023-05-13T07:17:17.038Z,5.38
2023-05-13T07:19:43.292Z,6.05
2023-05-13T07:22:09.659Z,4.10
2023-05-13T07:24:35.742Z,3.65
2023-05-13T07:27:03.990Z,5.85
2023-05-13T07:29:31.611Z,3.63
2023-05-13T07:32:02.094Z,5.28
2023-05-13T07:34:28.258Z,4.35
2023-05-13T07:36:54.626Z,29.90
2023-05-13T07:39:20.699Z,23.63
2023-05-13T07:41:47.102Z,4.47
2023-05-13T07:44:14.640Z,5.68
2023-05-13T07:46:41.012Z,4.28
2023-05-13T07:49:08.131Z,41.30
2023-05-13T07:51:35.655Z,30.13
2023-05-13T07:54:01.874Z,7.80
2023-05-13T07:56:28.330Z,12.25
2023-05-13T07:58:54.500Z,6.43
2023-05-13T08:01:21.294Z,7.60
2023-05-13T08:03:47.572Z,6.78
2023-05-13T08:06:14.149Z,4.57
2023-05-13T08:08:40.253Z,6.20
2023-05-13T08:11:06.715Z,19.15
2023-05-13T08:13:32.816Z,71.65
2023-05-13T08:16:03.625Z,51.97
2023-05-13T08:18:29.960Z,101.72
2023-05-13T08:20:56.520Z,16.60
2023-05-13T08:23:33.522Z,15.55
2023-05-13T08:26:10.841Z,9.23
2023-05-13T08:28:37.271Z,26.52
2023-05-13T08:31:04.031Z,13.60
2023-05-13T08:33:30.754Z,13.07
2023-05-13T08:35:59.424Z,8.70
2023-05-13T08:38:25.604Z,12.75
2023-05-13T08:40:52.153Z,12.10
2023-05-13T08:43:19.019Z,5.40
2023-05-13T08:45:47.108Z,37.58
2023-05-13T08:48:15.546Z,32.03
2023-05-13T08:50:42.420Z,66.80
2023-05-13T08:53:11.235Z,49.85
2023-05-13T08:55:41.007Z,94.18
2023-05-13T08:58:07.464Z,36.15
2023-05-13T09:00:34.899Z,52.33
2023-05-13T09:03:01.387Z,29.35
2023-05-13T09:05:28.904Z,19.65
2023-05-13T09:07:55.833Z,23.33
2023-05-13T09:10:22.393Z,15.20
2023-05-13T09:12:53.768Z,29.60
2023-05-13T09:15:23.227Z,49.03
2023-05-13T09:18:06.246Z,28.05
2023-05-13T09:20:34.111Z,46.20
2023-05-13T09:23:05.788Z,35.80
2023-05-13T09:25:32.994Z,110.68
2023-05-13T09:28:01.707Z,18.45
2023-05-13T09:30:30.171Z,26.05
2023-05-13T09:33:18.981Z,10.02
2023-05-13T09:35:51.850Z,6.10
2023-05-13T09:38:25.382Z,4.35
2023-05-13T09:40:57.078Z,47.30
2023-05-13T09:43:28.498Z,6.28
2023-05-13T09:45:56.425Z,24.02
2023-05-13T09:48:28.316Z,6.85
2023-05-13T09:50:57.183Z,7.55
2023-05-13T09:53:24.377Z,8.82
2023-05-13T09:55:53.014Z,28.88
2023-05-13T09:58:23.687Z,26.75
2023-05-13T10:00:51.453Z,45.10
2023-05-13T10:03:17.683Z,16.27
2023-05-13T10:05:44.430Z,10.70
2023-05-13T10:08:13.043Z,4.10
2023-05-13T10:10:40.961Z,14.65
2023-05-13T10:13:13.499Z,32.67
2023-05-13T10:15:49.525Z,6.55
2023-05-13T10:18:17.393Z,5.25
2023-05-13T10:20:45.047Z,4.63
2023-05-13T10:23:11.947Z,7.13
2023-05-13T10:25:38.553Z,11.60
2023-05-13T10:28:05.013Z,5.00
2023-05-13T10:30:33.140Z,3.90
2023-05-13T10:33:00.715Z,3.08
2023-05-13T10:35:32.720Z,9.18
2023-05-13T10:38:02.198Z,10.05
2023-05-13T10:40:39.908Z,23.45
2023-05-13T10:43:33.554Z,6.00
2023-05-13T10:46:10.674Z,12.65
2023-05-13T10:48:42.614Z,9.77
2023-05-13T10:51:13.366Z,3.95
2023-05-13T10:53:48.049Z,4.80
2023-05-13T10:56:15.135Z,5.30
2023-05-13T10:58:41.292Z,6.93
2023-05-13T11:01:14.921Z,7.05
2023-05-13T11:03:49.373Z,4.38
2023-05-13T11:06:18.714Z,18.45
2023-05-13T11:08:47.283Z,7.20
2023-05-13T11:11:20.963Z,11.57
2023-05-13T11:13:59.266Z,2.75
2023-05-13T11:16:26.124Z,6.57
2023-05-13T11:18:52.930Z,19.25
2023-05-13T11:21:38.877Z,10.65
2023-05-13T11:24:07.286Z,7.45
2023-05-13T11:26:47.206Z,4.30
2023-05-13T11:29:14.596Z,7.68
2023-05-13T11:31:49.627Z,4.40
2023-05-13T11:34:17.449Z,3.67
2023-05-13T11:36:48.940Z,4.32
2023-05-13T11:39:17.668Z,7.95
2023-05-13T11:41:49.215Z,3.55
2023-05-13T11:44:20.384Z,6.45
2023-05-13T11:47:01.058Z,8.10
2023-05-13T11:49:31.813Z,3.72
2023-05-13T11:52:11.539Z,4.82
2023-05-13T11:54:44.213Z,5.60
2023-05-13T11:57:33.600Z,5.65
2023-05-13T12:00:06.087Z,4.05
2023-05-13T12:02:38.711Z,7.03
2023-05-13T12:05:10.561Z,5.82
2023-05-13T12:07:38.884Z,3.58
2023-05-13T12:10:07.079Z,5.82
2023-05-13T12:12:37.255Z,10.07
2023-05-13T12:15:06.250Z,3.83
2023-05-13T12:17:33.366Z,8.95
2023-05-13T12:20:14.170Z,4.20
2023-05-13T12:22:43.825Z,13.80
2023-05-13T12:25:37.918Z,4.07
2023-05-13T12:28:21.448Z,7.15
2023-05-13T12:30:58.512Z,3.17
2023-05-13T12:33:48.734Z,4.35
2023-05-13T12:36:25.202Z,6.20
2023-05-13T12:39:08.986Z,4.35
2023-05-13T12:41:49.615Z,5.82
2023-05-13T12:44:16.228Z,6.00
2023-05-13T12:46:56.461Z,4.28
2023-05-13T12:49:23.475Z,4.38
2023-05-13T12:51:50.989Z,11.02
2023-05-13T12:54:17.858Z,4.03
2023-05-13T12:56:44.048Z,6.10
2023-05-13T12:59:10.555Z,3.72
2023-05-13T13:01:36.905Z,6.45
2023-05-13T13:04:03.682Z,2.53
2023-05-13T13:06:31.642Z,4.78
2023-05-13T13:08:58.034Z,5.35
2023-05-13T13:11:24.160Z,4.30
2023-05-13T13:13:50.591Z,4.90
2023-05-13T13:16:16.794Z,2.53
2023-05-13T13:18:44.036Z,5.70
2023-05-13T13:21:10.362Z,6.50
2023-05-13T13:23:36.930Z,9.23
2023-05-13T13:26:03.146Z,3.72
2023-05-13T13:28:30.906Z,5.53
2023-05-13T13:30:58.519Z,12.23
2023-05-13T13:33:24.903Z,7.63
2023-05-13T13:35:51.196Z,5.70
2023-05-13T13:38:17.750Z,4.80
2023-05-13T13:40:43.843Z,7.18
2023-05-13T13:43:10.206Z,3.70
2023-05-13T13:45:36.332Z,12.48
2023-05-13T13:48:03.057Z,12.68
2023-05-13T13:50:29.335Z,11.68
2023-05-13T13:52:55.773Z,12.40
2023-05-13T13:55:23.035Z,4.88
2023-05-13T13:57:50.143Z,3.70
2023-05-13T14:00:17.266Z,3.22
2023-05-13T14:02:43.961Z,3.30
2023-05-13T14:05:11.983Z,6.72
2023-05-13T14:07:41.374Z,6.30
2023-05-13T14:10:08.844Z,7.40
2023-05-13T14:12:35.593Z,3.70
2023-05-13T14:15:02.102Z,3.70
2023-05-13T14:17:28.789Z,2.58
2023-05-13T14:19:55.018Z,4.72
2023-05-13T14:22:22.793Z,4.88
2023-05-13T14:24:51.319Z,4.30
2023-05-13T14:27:17.912Z,3.97
2023-05-13T14:29:46.260Z,3.45
2023-05-13T14:32:13.153Z,2.50
2023-05-13T14:34:39.441Z,5.38
2023-05-13T14:37:06.552Z,6.13
2023-05-13T14:39:32.797Z,3.42
2023-05-13T14:41:59.798Z,5.60
2023-05-13T14:44:29.253Z,4.00
2023-05-13T14:46:55.944Z,7.18
2023-05-13T14:49:22.367Z,5.80
2023-05-13T14:51:48.869Z,6.22
2023-05-13T14:54:16.839Z,8.35
2023-05-13T14:56:43.543Z,5.97
2023-05-13T14:59:09.920Z,5.45
2023-05-13T15:01:37.249Z,3.75
2023-05-13T15:04:03.499Z,5.40
2023-05-13T15:06:31.203Z,4.53
2023-05-13T15:08:57.308Z,2.55
2023-05-13T15:11:26.411Z,5.05
2023-05-13T15:13:52.584Z,7.30
2023-05-13T15:16:18.997Z,3.45
2023-05-13T15:18:45.250Z,6.53
2023-05-13T15:21:11.607Z,5.47
2023-05-13T15:23:37.710Z,4.95
2023-05-13T15:26:04.283Z,4.03
2023-05-13T15:28:30.464Z,3.28
2023-05-13T15:30:56.890Z,6.72
2023-05-13T15:33:23.064Z,3.97
2023-05-13T15:35:50.224Z,4.65
2023-05-13T15:38:16.429Z,4.57
2023-05-13T15:40:42.820Z,5.38
2023-05-13T15:43:09.021Z,5.75
2023-05-13T15:45:35.531Z,4.38
2023-05-13T15:48:01.963Z,4.70
2023-05-13T15:50:28.556Z,9.27
2023-05-13T15:52:54.807Z,8.48
2023-05-13T15:55:21.763Z,3.58
2023-05-13T15:57:50.059Z,8.70
2023-05-13T16:00:17.786Z,10.40
2023-05-13T16:02:44.401Z,4.53
2023-05-13T16:05:11.336Z,3.10
2023-05-13T16:07:37.638Z,3.97
2023-05-13T16:10:04.458Z,6.18
2023-05-13T16:12:30.930Z,7.13
2023-05-13T16:14:57.369Z,6.13
2023-05-13T16:17:24.046Z,4.57
2023-05-13T16:19:50.785Z,7.13
2023-05-13T16:22:37.290Z,5.90
2023-05-13T16:25:05.913Z,8.73
2023-05-13T16:27:33.137Z,9.90
2023-05-13T16:30:01.212Z,6.55
2023-05-13T16:32:28.162Z,10.98
2023-05-13T16:34:55.208Z,7.57
2023-05-13T16:37:21.475Z,7.97
2023-05-13T16:39:48.160Z,3.15
2023-05-13T16:42:15.332Z,5.75
2023-05-13T16:44:42.037Z,7.75
2023-05-13T16:47:08.456Z,4.30
2023-05-13T16:49:37.845Z,7.13
2023-05-13T16:52:04.756Z,5.07
2023-05-13T16:54:31.867Z,6.00
2023-05-13T16:56:58.785Z,5.47
2023-05-13T16:59:26.789Z,5.82
2023-05-13T17:01:53.487Z,8.40
2023-05-13T17:04:20.552Z,6.93
2023-05-13T17:06:46.972Z,6.15
2023-05-13T17:09:13.600Z,4.13
2023-05-13T17:11:39.954Z,7.88
2023-05-13T17:14:06.684Z,4.05
2023-05-13T17:16:33.003Z,6.97
2023-05-13T17:18:59.631Z,6.35
2023-05-13T17:21:25.966Z,6.45
2023-05-13T17:23:52.784Z,5.68
2023-05-13T17:26:21.108Z,5.40
2023-05-13T17:28:48.367Z,5.25
2023-05-13T17:31:14.440Z,4.57
2023-05-13T17:33:41.044Z,3.35
2023-05-13T17:36:07.517Z,5.25
2023-05-13T17:38:34.073Z,7.88
2023-05-13T17:41:00.286Z,8.02
2023-05-13T17:43:26.801Z,6.63
2023-05-13T17:45:53.039Z,6.72
2023-05-13T17:48:19.558Z,8.60
2023-05-13T17:50:45.831Z,8.35
2023-05-13T17:53:12.286Z,12.13
2023-05-13T17:55:38.487Z,13.48
2023-05-13T17:58:05.108Z,15.05
2023-05-13T18:00:31.891Z,8.55
2023-05-13T18:02:58.478Z,14.02
2023-05-13T18:05:25.945Z,16.67
2023-05-13T18:07:52.930Z,11.50
2023-05-13T18:10:19.410Z,10.52
2023-05-13T18:12:45.887Z,14.60
2023-05-13T18:15:12.882Z,9.35
2023-05-13T18:17:39.321Z,8.30
2023-05-13T18:20:06.284Z,10.60
2023-05-13T18:22:34.171Z,11.67
2023-05-13T18:25:00.705Z,12.83
2023-05-13T18:27:27.492Z,23.43
2023-05-13T18:29:53.756Z,24.93
2023-05-13T18:32:20.436Z,34.50
2023-05-13T18:34:46.852Z,42.93
2023-05-13T18:37:14.418Z,16.13
2023-05-13T18:39:45.039Z,20.53
2023-05-13T18:42:12.011Z,19.93
2023-05-13T18:44:38.132Z,15.13
2023-05-13T18:47:05.557Z,17.70
2023-05-13T18:49:32.277Z,14.07
2023-05-13T18:51:59.397Z,17.13
2023-05-13T18:54:28.326Z,15.73
2023-05-13T18:56:55.631Z,9.47
2023-05-13T18:59:22.285Z,13.47
2023-05-13T19:01:49.051Z,7.40
2023-05-13T19:04:15.746Z,10.87
2023-05-13T19:07:07.926Z,9.30
2023-05-13T19:09:35.268Z,10.47
2023-05-13T19:12:02.020Z,8.37
2023-05-13T19:14:28.522Z,9.43
2023-05-13T19:16:55.236Z,10.30
2023-05-13T19:19:23.891Z,12.30
2023-05-13T19:21:50.382Z,10.17
2023-05-13T19:24:16.520Z,7.07
2023-05-13T19:26:43.212Z,11.77
2023-05-13T19:29:09.557Z,13.30
2023-05-13T19:31:36.136Z,9.93
2023-05-13T19:34:02.443Z,11.63
2023-05-13T19:36:29.336Z,14.23
2023-05-13T19:38:56.195Z,11.73
2023-05-13T19:41:22.900Z,21.47
2023-05-13T19:43:49.898Z,22.27
2023-05-13T19:46:16.693Z,31.37
2023-05-13T19:48:43.029Z,36.47
2023-05-13T19:51:09.722Z,38.63
2023-05-13T19:53:36.218Z,31.00
2023-05-13T19:56:03.312Z,46.77
2023-05-13T19:58:29.810Z,32.87
2023-05-13T20:00:56.414Z,24.60
2023-05-13T20:03:22.910Z,28.90
2023-05-13T20:05:50.590Z,27.37
2023-05-13T20:08:17.197Z,26.90
2023-05-13T20:10:43.854Z,30.37
2023-05-13T20:13:10.217Z,32.37
2023-05-13T20:15:36.621Z,24.20
2023-05-13T20:18:02.978Z,26.13
2023-05-13T20:20:29.541Z,25.73
2023-05-13T20:22:55.771Z,22.93
2023-05-13T20:25:22.245Z,22.57
2023-05-13T20:27:49.075Z,17.57
2023-05-13T20:30:16.702Z,16.90
2023-05-13T20:32:42.961Z,26.90
2023-05-13T20:35:09.488Z,19.03
2023-05-13T20:37:35.773Z,15.93
2023-05-13T20:40:03.753Z,13.17
2023-05-13T20:42:30.075Z,15.77
2023-05-13T20:44:56.604Z,15.50
2023-05-13T20:47:23.190Z,17.50
2023-05-13T20:49:49.970Z,29.93
2023-05-13T20:52:16.275Z,18.80
2023-05-13T20:54:42.960Z,21.37
2023-05-13T20:57:09.179Z,13.50
2023-05-13T20:59:35.740Z,12.20
2023-05-13T21:02:02.177Z,11.97
2023-05-13T21:04:28.762Z,8.97
2023-05-13T21:06:55.326Z,10.63
2023-05-13T21:09:21.765Z,13.10
2023-05-13T21:11:47.992Z,12.00
2023-05-13T21:14:14.697Z,12.27
2023-05-13T21:16:41.111Z,8.60
2023-05-13T21:19:07.926Z,11.33
2023-05-13T21:21:34.282Z,10.87
2023-05-13T21:24:01.009Z,11.17
2023-05-13T21:26:27.631Z,11.77
2023-05-13T21:28:54.421Z,12.20
2023-05-13T21:31:21.159Z,9.67
2023-05-13T21:33:48.244Z,12.37
2023-05-13T21:36:14.699Z,11.63
2023-05-13T21:38:41.339Z,11.00
2023-05-13T21:41:07.566Z,10.13
2023-05-13T21:43:34.017Z,10.87
2023-05-13T21:46:01.901Z,15.57
2023-05-13T21:48:28.546Z,10.93
2023-05-13T21:50:54.905Z,12.23
2023-05-13T21:53:21.666Z,14.50
2023-05-13T21:55:47.721Z,17.10
2023-05-13T21:58:14.820Z,14.83
2023-05-13T22:00:41.081Z,13.23
2023-05-13T22:03:07.579Z,12.60
2023-05-13T22:05:33.988Z,12.30
2023-05-13T22:08:01.147Z,12.77
2023-05-13T22:10:27.568Z,14.67
2023-05-13T22:12:56.748Z,15.37
2023-05-13T22:15:22.853Z,12.33
2023-05-13T22:17:50.892Z,13.03
2023-05-13T22:20:17.411Z,11.67
2023-05-13T22:22:43.930Z,9.77
2023-05-13T22:25:10.098Z,10.40
2023-05-13T22:27:36.673Z,16.03
2023-05-13T22:30:03.366Z,14.30
2023-05-13T22:32:30.206Z,18.23
2023-05-13T22:34:56.519Z,10.17
2023-05-13T22:37:22.873Z,12.37
2023-05-13T22:39:49.014Z,10.50
2023-05-13T22:42:15.392Z,11.77
2023-05-13T22:44:41.534Z,14.20
2023-05-13T22:47:08.177Z,14.07
2023-05-13T22:49:34.735Z,16.87
2023-05-13T22:52:01.269Z,9.30
2023-05-13T22:54:27.499Z,16.80
2023-05-13T22:56:53.920Z,23.73
2023-05-13T22:59:20.104Z,32.83
2023-05-13T23:01:46.651Z,25.17
2023-05-13T23:04:12.844Z,21.87
2023-05-13T23:06:39.303Z,22.27
2023-05-13T23:09:06.731Z,19.70
2023-05-13T23:11:35.101Z,14.97
2023-05-13T23:14:01.246Z,16.27
2023-05-13T23:16:27.699Z,14.83
2023-05-13T23:18:55.137Z,13.33
2023-05-13T23:21:21.557Z,22.50
2023-05-13T23:23:49.429Z,18.67
2023-05-13T23:26:15.797Z,17.33
2023-05-13T23:28:41.912Z,21.20
2023-05-13T23:31:08.367Z,17.20
2023-05-13T23:33:34.531Z,15.50
2023-05-13T23:36:00.862Z,18.33
2023-05-13T23:38:27.003Z,21.90
2023-05-13T23:40:53.401Z,18.73
2023-05-13T23:43:19.508Z,23.17
2023-05-13T23:45:46.120Z,16.37
2023-05-13T23:48:12.291Z,19.10
2023-05-13T23:50:40.562Z,16.50
2023-05-13T23:53:07.112Z,16.73
2023-05-13T23:55:33.499Z,21.40
2023-05-13T23:57:59.854Z,14.93
